West Eminence, Missouri
Current Conditions -  °F | °C
As of 4:36 AM on Thursday 18 Dec 2014 (Local Time) from KUNO Reporting Station
Haze Haze  
Wind Chill: 28°   Ceiling: 400
Heat Index: 33°   Visibility: 4mi
Dew Point: 31°   Wind: 6mph
Humidity: 92%   Direction: 90°E
Pressure: 30.18"   Gusts: NA
Location:  37.1833°N, 91.4819°W
Report Text: KUNO 181036Z AUTO 09005KT 4SM BR OVC004 01/M01 A3018 RMK AO2 T00061006
Loading
Personal Weather Stations






























Interactive Weather Map New forecast layout! Learn more

10-Day Weather Forecast

Advertisements
Track Severe Weather on mobile